createdAt,value
2023-02-11T00:00:23.291Z,-4.42
2023-02-11T00:03:11.223Z,-4.43
2023-02-11T00:06:04.598Z,-4.47
2023-02-11T00:08:52.457Z,-4.50
2023-02-11T00:11:40.564Z,-4.51
2023-02-11T00:14:28.300Z,-4.53
2023-02-11T00:17:16.268Z,-4.55
2023-02-11T00:20:06.027Z,-4.58
2023-02-11T00:22:58.239Z,-4.59
2023-02-11T00:25:46.837Z,-4.62
2023-02-11T00:28:34.809Z,-4.63
2023-02-11T00:31:24.632Z,-4.65
2023-02-11T00:34:12.875Z,-4.65
2023-02-11T00:37:00.945Z,-4.68
2023-02-11T00:39:51.046Z,-4.69
2023-02-11T00:42:39.056Z,-4.71
2023-02-11T00:45:26.742Z,-4.74
2023-02-11T00:48:14.329Z,-4.75
2023-02-11T00:51:02.206Z,-4.76
2023-02-11T00:53:49.985Z,-4.77
2023-02-11T00:56:38.951Z,-4.80
2023-02-11T00:59:26.896Z,-4.83
2023-02-11T01:02:14.419Z,-4.86
2023-02-11T01:05:02.563Z,-4.85
2023-02-11T01:07:50.509Z,-4.88
2023-02-11T01:10:38.131Z,-4.88
2023-02-11T01:13:28.720Z,-4.86
2023-02-11T01:16:17.782Z,-4.86
2023-02-11T01:19:05.685Z,-4.87
2023-02-11T01:21:53.968Z,-4.85
2023-02-11T01:24:41.413Z,-4.85
2023-02-11T01:27:28.901Z,-4.88
2023-02-11T01:30:17.976Z,-4.89
2023-02-11T01:33:05.966Z,-4.88
2023-02-11T01:35:53.974Z,-4.87
2023-02-11T01:38:44.648Z,-4.85
2023-02-11T01:41:36.204Z,-4.85
2023-02-11T01:44:29.865Z,-4.75
2023-02-11T01:47:23.306Z,-4.49
2023-02-11T01:50:14.716Z,-4.26
2023-02-11T01:53:19.068Z,-4.14
2023-02-11T01:56:26.464Z,-4.19
2023-02-11T01:59:25.584Z,-4.27
2023-02-11T02:02:21.093Z,-4.26
2023-02-11T02:05:23.467Z,-4.06
2023-02-11T02:08:20.298Z,-3.87
2023-02-11T02:11:08.552Z,-3.80
2023-02-11T02:13:56.315Z,-3.62
2023-02-11T02:16:44.420Z,-3.58
2023-02-11T02:20:12.722Z,-3.61
2023-02-11T02:23:35.499Z,-3.63
2023-02-11T02:27:21.417Z,-3.51
2023-02-11T02:31:02.292Z,-3.61
2023-02-11T02:33:59.791Z,-3.72
2023-02-11T02:36:57.255Z,-3.66
2023-02-11T02:39:49.849Z,-3.61
2023-02-11T02:42:39.138Z,-3.65
2023-02-11T02:45:27.074Z,-3.72
2023-02-11T02:48:28.120Z,-3.79
2023-02-11T02:51:52.887Z,-3.63
2023-02-11T02:55:18.487Z,-3.48
2023-02-11T02:58:46.005Z,-3.41
2023-02-11T03:01:51.671Z,-3.40
2023-02-11T03:04:51.831Z,-3.42
2023-02-11T03:07:49.756Z,-3.30
2023-02-11T03:10:43.779Z,-3.30
2023-02-11T03:13:36.880Z,-3.30
2023-02-11T03:16:27.917Z,-3.31
2023-02-11T03:19:21.683Z,-3.25
2023-02-11T03:22:18.254Z,-3.26
2023-02-11T03:25:08.858Z,-3.31
2023-02-11T03:28:09.209Z,-3.16
2023-02-11T03:31:10.832Z,-3.21
2023-02-11T03:34:08.753Z,-3.11
2023-02-11T03:37:04.339Z,-3.00
2023-02-11T03:39:56.204Z,-2.96
2023-02-11T03:42:50.548Z,-2.88
2023-02-11T03:45:39.556Z,-2.81
2023-02-11T03:48:31.135Z,-2.88
2023-02-11T03:51:21.896Z,-2.76
2023-02-11T03:54:16.530Z,-2.73
2023-02-11T03:57:05.722Z,-2.70
2023-02-11T03:59:58.935Z,-2.62
2023-02-11T04:02:47.031Z,-2.61
2023-02-11T04:05:36.007Z,-2.55
2023-02-11T04:08:25.055Z,-2.36
2023-02-11T04:11:16.180Z,-2.15
2023-02-11T04:14:06.298Z,-2.10
2023-02-11T04:16:58.783Z,-2.07
2023-02-11T04:19:49.602Z,-2.22
2023-02-11T04:22:40.921Z,-2.22
2023-02-11T04:25:32.059Z,-2.23
2023-02-11T04:28:23.336Z,-2.22
2023-02-11T04:31:14.941Z,-2.21
2023-02-11T04:34:04.524Z,-2.09
2023-02-11T04:36:55.322Z,-2.10
2023-02-11T04:39:45.111Z,-2.10
2023-02-11T04:42:32.759Z,-1.99
2023-02-11T04:45:20.362Z,-1.84
2023-02-11T04:48:09.438Z,-1.73
2023-02-11T04:50:59.705Z,-1.74
2023-02-11T04:53:48.247Z,-1.78
2023-02-11T04:56:37.934Z,-1.77
2023-02-11T04:59:27.326Z,-1.78
2023-02-11T05:02:18.412Z,-1.77
2023-02-11T05:05:11.182Z,-1.73
2023-02-11T05:08:02.612Z,-1.77
2023-02-11T05:10:52.540Z,-1.80
2023-02-11T05:13:45.867Z,-1.79
2023-02-11T05:16:39.187Z,-1.83
2023-02-11T05:19:31.248Z,-1.87
2023-02-11T05:22:22.424Z,-1.82
2023-02-11T05:25:15.234Z,-1.71
2023-02-11T05:28:08.762Z,-1.60
2023-02-11T05:30:59.467Z,-1.54
2023-02-11T05:33:48.433Z,-1.56
2023-02-11T05:36:37.583Z,-1.54
2023-02-11T05:39:26.366Z,-1.53
2023-02-11T05:42:16.596Z,-1.51
2023-02-11T05:45:06.110Z,-1.51
2023-02-11T05:47:54.993Z,-1.49
2023-02-11T05:50:44.570Z,-1.50
2023-02-11T05:53:33.842Z,-1.41
2023-02-11T05:56:27.234Z,-1.30
2023-02-11T05:59:22.144Z,-1.34
2023-02-11T06:02:13.207Z,-1.36
2023-02-11T06:05:02.367Z,-1.42
2023-02-11T06:07:52.208Z,-1.48
2023-02-11T06:10:43.096Z,-1.52
2023-02-11T06:13:31.817Z,-1.59
2023-02-11T06:16:22.341Z,-1.69
2023-02-11T06:19:14.130Z,-1.71
2023-02-11T06:22:03.287Z,-1.80
2023-02-11T06:25:01.355Z,-1.85
2023-02-11T06:27:53.074Z,-1.85
2023-02-11T06:30:42.178Z,-1.92
2023-02-11T06:33:34.647Z,-1.97
2023-02-11T06:36:26.595Z,-2.02
2023-02-11T06:39:18.389Z,-2.07
2023-02-11T06:42:10.340Z,-2.09
2023-02-11T06:45:06.072Z,-2.13
2023-02-11T06:47:57.082Z,-2.17
2023-02-11T06:50:49.550Z,-2.19
2023-02-11T06:53:42.878Z,-2.22
2023-02-11T06:56:37.216Z,-2.27
2023-02-11T06:59:28.158Z,-2.29
2023-02-11T07:02:20.985Z,-2.30
2023-02-11T07:05:10.464Z,-2.34
2023-02-11T07:08:05.562Z,-2.35
2023-02-11T07:10:56.613Z,-2.28
2023-02-11T07:13:48.899Z,-2.18
2023-02-11T07:16:39.710Z,-2.15
2023-02-11T07:19:28.811Z,-2.15
2023-02-11T07:22:17.254Z,-2.15
2023-02-11T07:25:07.709Z,-2.09
2023-02-11T07:27:56.421Z,-2.05
2023-02-11T07:30:45.205Z,-1.83
2023-02-11T07:33:34.252Z,-1.63
2023-02-11T07:36:24.250Z,-1.60
2023-02-11T07:39:17.323Z,-1.47
2023-02-11T07:42:09.360Z,-1.42
2023-02-11T07:45:00.113Z,-1.37
2023-02-11T07:47:50.702Z,-1.16
2023-02-11T07:50:41.158Z,-1.09
2023-02-11T07:53:29.220Z,-0.98
2023-02-11T07:56:21.217Z,-0.90
2023-02-11T07:59:17.069Z,-0.82
2023-02-11T08:02:06.912Z,-0.77
2023-02-11T08:04:55.038Z,-0.57
2023-02-11T08:07:43.342Z,-0.51
2023-02-11T08:10:34.191Z,-0.38
2023-02-11T08:13:23.060Z,-0.32
2023-02-11T08:16:25.648Z,-0.20
2023-02-11T08:19:16.232Z,0.00
2023-02-11T08:22:09.626Z,0.25
2023-02-11T08:25:00.757Z,0.52
2023-02-11T08:27:49.677Z,0.71
2023-02-11T08:30:38.642Z,0.79
2023-02-11T08:33:35.046Z,0.87
2023-02-11T08:36:29.135Z,0.88
2023-02-11T08:39:24.208Z,0.92
2023-02-11T08:42:12.414Z,0.99
2023-02-11T08:45:00.297Z,1.07
2023-02-11T08:47:48.331Z,1.18
2023-02-11T08:50:40.397Z,1.37
2023-02-11T08:53:28.367Z,1.45
2023-02-11T08:56:19.983Z,1.51
2023-02-11T08:59:13.967Z,1.73
2023-02-11T09:02:03.092Z,1.77
2023-02-11T09:04:51.800Z,1.90
2023-02-11T09:07:40.818Z,2.00
2023-02-11T09:10:28.937Z,2.21
2023-02-11T09:13:17.077Z,2.34
2023-02-11T09:16:06.927Z,2.40
2023-02-11T09:18:57.422Z,2.59
2023-02-11T09:21:45.467Z,2.70
2023-02-11T09:24:34.701Z,2.70
2023-02-11T09:27:22.306Z,2.71
2023-02-11T09:30:11.841Z,2.77
2023-02-11T09:33:00.047Z,2.82
2023-02-11T09:35:47.736Z,2.91
2023-02-11T09:38:36.970Z,3.20
2023-02-11T09:41:43.431Z,3.36
2023-02-11T09:44:36.009Z,3.33
2023-02-11T09:47:29.136Z,3.49
2023-02-11T09:50:19.562Z,3.73
2023-02-11T09:53:15.696Z,3.85
2023-02-11T09:56:11.491Z,4.00
2023-02-11T09:59:01.016Z,4.12
2023-02-11T10:01:54.501Z,4.26
2023-02-11T10:05:07.013Z,4.33
2023-02-11T10:08:02.253Z,4.48
2023-02-11T10:10:54.890Z,4.59
2023-02-11T10:13:52.956Z,4.66
2023-02-11T10:16:58.694Z,4.73
2023-02-11T10:20:01.265Z,4.77
2023-02-11T10:22:51.846Z,4.91
2023-02-11T10:25:45.464Z,5.09
2023-02-11T10:28:35.265Z,5.16
2023-02-11T10:31:26.792Z,5.26
2023-02-11T10:34:16.922Z,5.35
2023-02-11T10:37:07.310Z,5.43
2023-02-11T10:39:55.366Z,5.52
2023-02-11T10:42:47.186Z,5.62
2023-02-11T10:45:39.726Z,5.68
2023-02-11T10:48:46.519Z,5.76
2023-02-11T10:51:37.619Z,5.81
2023-02-11T10:54:25.767Z,5.85
2023-02-11T10:57:20.900Z,5.91
2023-02-11T11:00:22.483Z,5.94
2023-02-11T11:03:20.368Z,6.03
2023-02-11T11:06:10.592Z,6.10
2023-02-11T11:09:01.215Z,6.10
2023-02-11T11:11:55.541Z,6.11
2023-02-11T11:14:54.844Z,6.14
2023-02-11T11:17:43.009Z,6.23
2023-02-11T11:20:35.424Z,6.24
2023-02-11T11:23:25.021Z,6.17
2023-02-11T11:26:16.187Z,6.24
2023-02-11T11:29:10.692Z,6.31
2023-02-11T11:32:01.345Z,6.40
2023-02-11T11:34:52.584Z,6.37
2023-02-11T11:37:41.106Z,6.37
2023-02-11T11:40:31.545Z,6.36
2023-02-11T11:43:23.194Z,6.50
2023-02-11T11:46:12.271Z,6.43
2023-02-11T11:49:20.612Z,6.41
2023-02-11T11:52:20.868Z,6.51
2023-02-11T11:55:17.368Z,6.46
2023-02-11T11:58:06.914Z,6.43
2023-02-11T12:01:07.904Z,6.45
2023-02-11T12:04:26.163Z,6.43
2023-02-11T12:07:26.269Z,6.47
2023-02-11T12:10:46.183Z,6.44
2023-02-11T12:13:48.825Z,6.49
2023-02-11T12:16:48.906Z,6.55
2023-02-11T12:20:03.888Z,6.63
2023-02-11T12:23:06.271Z,6.61
2023-02-11T12:26:02.216Z,6.64
2023-02-11T12:29:04.330Z,6.67
2023-02-11T12:32:12.216Z,6.74
2023-02-11T12:35:16.608Z,6.72
2023-02-11T12:38:22.957Z,6.71
2023-02-11T12:41:55.369Z,6.75
2023-02-11T12:44:55.799Z,6.68
2023-02-11T12:48:00.435Z,6.70
2023-02-11T12:50:57.272Z,6.69
2023-02-11T12:54:10.312Z,6.82
2023-02-11T12:57:04.192Z,6.80
2023-02-11T12:59:59.004Z,6.79
2023-02-11T13:02:55.689Z,6.85
2023-02-11T13:05:49.476Z,6.86
2023-02-11T13:08:42.473Z,6.77
2023-02-11T13:11:38.528Z,6.85
2023-02-11T13:14:30.650Z,6.87
2023-02-11T13:17:26.584Z,6.87
2023-02-11T13:20:34.050Z,6.83
2023-02-11T13:23:31.487Z,6.88
2023-02-11T13:26:25.187Z,6.90
2023-02-11T13:29:27.543Z,6.90
2023-02-11T13:32:16.988Z,6.88
2023-02-11T13:35:33.570Z,6.80
2023-02-11T13:38:23.489Z,6.86
2023-02-11T13:41:21.035Z,6.89
2023-02-11T13:44:26.657Z,6.93
2023-02-11T13:47:30.583Z,6.93
2023-02-11T13:50:25.385Z,6.80
2023-02-11T13:53:16.150Z,6.85
2023-02-11T13:56:11.388Z,6.86
2023-02-11T13:59:02.300Z,6.89
2023-02-11T14:02:39.202Z,6.81
2023-02-11T14:05:50.563Z,6.86
2023-02-11T14:09:00.442Z,6.89
2023-02-11T14:11:51.717Z,6.90
2023-02-11T14:15:04.817Z,6.84
2023-02-11T14:17:53.967Z,6.84
2023-02-11T14:20:45.393Z,6.85
2023-02-11T14:23:33.224Z,6.87
2023-02-11T14:26:37.519Z,6.92
2023-02-11T14:29:34.575Z,6.94
2023-02-11T14:32:38.715Z,7.02
2023-02-11T14:35:37.189Z,7.01
2023-02-11T14:38:34.365Z,7.04
2023-02-11T14:41:25.874Z,6.94
2023-02-11T14:44:18.597Z,7.03
2023-02-11T14:47:08.622Z,7.02
2023-02-11T14:49:57.555Z,7.01
2023-02-11T14:52:45.912Z,7.03
2023-02-11T14:55:38.096Z,7.00
2023-02-11T14:58:27.814Z,6.93
2023-02-11T15:01:30.155Z,6.90
2023-02-11T15:04:27.130Z,6.81
2023-02-11T15:07:16.510Z,6.76
2023-02-11T15:10:04.698Z,6.79
2023-02-11T15:12:53.551Z,6.81
2023-02-11T15:15:41.969Z,6.78
2023-02-11T15:18:37.599Z,6.72
2023-02-11T15:21:29.984Z,6.68
2023-02-11T15:24:27.083Z,6.62
2023-02-11T15:27:20.971Z,6.61
2023-02-11T15:30:28.138Z,6.60
2023-02-11T15:33:25.389Z,6.60
2023-02-11T15:36:16.603Z,6.57
2023-02-11T15:39:31.880Z,6.53
2023-02-11T15:42:25.666Z,6.52
2023-02-11T15:45:26.087Z,6.47
2023-02-11T15:48:17.636Z,6.45
2023-02-11T15:51:21.856Z,6.40
2023-02-11T15:54:18.587Z,6.40
2023-02-11T15:57:11.113Z,6.37
2023-02-11T16:00:04.409Z,6.32
2023-02-11T16:02:53.388Z,6.26
2023-02-11T16:05:41.316Z,6.24
2023-02-11T16:08:32.797Z,6.23
2023-02-11T16:11:31.161Z,6.20
2023-02-11T16:14:24.592Z,6.17
2023-02-11T16:17:22.917Z,6.14
2023-02-11T16:20:20.396Z,6.11
2023-02-11T16:23:09.065Z,6.06
2023-02-11T16:26:05.485Z,6.02
2023-02-11T16:28:54.254Z,5.99
2023-02-11T16:31:44.117Z,5.94
2023-02-11T16:34:32.410Z,5.90
2023-02-11T16:37:20.528Z,5.87
2023-02-11T16:40:11.974Z,5.83
2023-02-11T16:43:01.681Z,5.79
2023-02-11T16:45:50.573Z,5.77
2023-02-11T16:48:39.944Z,5.72
2023-02-11T16:51:28.029Z,5.70
2023-02-11T16:54:17.964Z,5.67
2023-02-11T16:57:15.006Z,5.62
2023-02-11T17:00:06.345Z,5.58
2023-02-11T17:02:54.051Z,5.50
2023-02-11T17:05:54.988Z,5.46
2023-02-11T17:08:46.509Z,5.41
2023-02-11T17:11:36.616Z,5.38
2023-02-11T17:14:26.441Z,5.37
2023-02-11T17:17:15.881Z,5.33
2023-02-11T17:20:04.062Z,5.32
2023-02-11T17:22:51.904Z,5.29
2023-02-11T17:25:40.743Z,5.27
2023-02-11T17:28:28.700Z,5.22
2023-02-11T17:31:17.128Z,5.19
2023-02-11T17:34:07.083Z,5.16
2023-02-11T17:36:58.229Z,5.16
2023-02-11T17:39:46.726Z,5.13
2023-02-11T17:42:35.186Z,5.08
2023-02-11T17:45:26.281Z,5.08
2023-02-11T17:48:14.548Z,5.05
2023-02-11T17:51:08.773Z,5.03
2023-02-11T17:53:58.364Z,5.00
2023-02-11T17:56:50.628Z,4.99
2023-02-11T17:59:39.552Z,4.99
2023-02-11T18:02:27.940Z,4.96
2023-02-11T18:05:16.197Z,4.94
2023-02-11T18:08:06.395Z,4.91
2023-02-11T18:10:54.450Z,4.92
2023-02-11T18:13:42.133Z,4.87
2023-02-11T18:16:30.796Z,4.84
2023-02-11T18:19:19.023Z,4.83
2023-02-11T18:22:07.070Z,4.82
2023-02-11T18:24:57.057Z,4.81
2023-02-11T18:27:46.330Z,4.79
2023-02-11T18:30:34.516Z,4.77
2023-02-11T18:33:22.838Z,4.76
2023-02-11T18:36:15.750Z,4.75
2023-02-11T18:39:06.883Z,4.73
2023-02-11T18:41:59.904Z,4.70
2023-02-11T18:44:47.858Z,4.70
2023-02-11T18:47:36.125Z,4.69
2023-02-11T18:50:26.484Z,4.65
2023-02-11T18:53:17.150Z,4.63
2023-02-11T18:56:12.117Z,4.62
2023-02-11T18:59:02.470Z,4.63
2023-02-11T19:01:51.119Z,4.62
2023-02-11T19:04:39.247Z,4.60
2023-02-11T19:07:28.537Z,4.61
2023-02-11T19:10:18.542Z,4.58
2023-02-11T19:13:06.148Z,4.57
2023-02-11T19:15:57.838Z,4.57
2023-02-11T19:18:45.848Z,4.56
2023-02-11T19:21:36.506Z,4.56
2023-02-11T19:24:28.167Z,4.53
2023-02-11T19:27:15.890Z,4.53
2023-02-11T19:30:06.470Z,4.54
2023-02-11T19:32:57.200Z,4.52
2023-02-11T19:35:45.501Z,4.53
2023-02-11T19:38:35.604Z,4.53
2023-02-11T19:41:25.686Z,4.50
2023-02-11T19:44:17.202Z,4.49
2023-02-11T19:47:08.035Z,4.47
2023-02-11T19:50:01.157Z,4.45
2023-02-11T19:52:51.157Z,4.44
2023-02-11T19:55:41.260Z,4.43
2023-02-11T19:58:31.535Z,4.43
2023-02-11T20:01:23.171Z,4.39
2023-02-11T20:04:13.298Z,4.36
2023-02-11T20:07:06.786Z,4.35
2023-02-11T20:09:59.977Z,4.33
2023-02-11T20:12:49.834Z,4.33
2023-02-11T20:15:39.504Z,4.32
2023-02-11T20:18:29.153Z,4.32
2023-02-11T20:21:21.082Z,4.33
2023-02-11T20:24:12.665Z,4.33
2023-02-11T20:27:02.992Z,4.31
2023-02-11T20:29:52.914Z,4.29
2023-02-11T20:32:43.237Z,4.29
2023-02-11T20:35:32.882Z,4.29
2023-02-11T20:38:22.899Z,4.26
2023-02-11T20:41:17.430Z,4.26
2023-02-11T20:44:11.113Z,4.24
2023-02-11T20:47:05.311Z,4.21
2023-02-11T20:49:56.332Z,4.20
2023-02-11T20:52:45.892Z,4.19
2023-02-11T20:55:40.228Z,4.17
2023-02-11T20:58:31.251Z,4.17
2023-02-11T21:01:24.338Z,4.17
2023-02-11T21:04:16.001Z,4.15
2023-02-11T21:07:06.711Z,4.14
2023-02-11T21:09:57.845Z,4.15
2023-02-11T21:12:50.035Z,4.12
2023-02-11T21:15:40.646Z,4.11
2023-02-11T21:18:30.012Z,4.10
2023-02-11T21:21:20.504Z,4.10
2023-02-11T21:24:14.336Z,4.10
2023-02-11T21:27:04.116Z,4.09
2023-02-11T21:29:54.732Z,4.09
2023-02-11T21:32:48.757Z,4.09
2023-02-11T21:35:39.478Z,4.09
2023-02-11T21:38:28.819Z,4.08
2023-02-11T21:41:18.127Z,4.08
2023-02-11T21:44:07.000Z,4.07
2023-02-11T21:46:55.946Z,4.07
2023-02-11T21:49:46.753Z,4.06
2023-02-11T21:52:36.030Z,4.07
2023-02-11T21:55:25.080Z,4.08
2023-02-11T21:58:15.161Z,4.07
2023-02-11T22:01:10.770Z,4.07
2023-02-11T22:03:59.787Z,4.06
2023-02-11T22:06:50.034Z,4.05
2023-02-11T22:09:45.905Z,4.04
2023-02-11T22:12:34.973Z,4.04
2023-02-11T22:15:23.919Z,4.02
2023-02-11T22:18:15.180Z,4.02
2023-02-11T22:21:06.158Z,4.02
2023-02-11T22:23:57.286Z,4.02
2023-02-11T22:26:46.273Z,4.03
2023-02-11T22:29:35.678Z,4.01
2023-02-11T22:32:26.586Z,4.01
2023-02-11T22:35:15.612Z,3.99
2023-02-11T22:38:04.488Z,3.98
2023-02-11T22:40:54.511Z,3.97
2023-02-11T22:43:45.225Z,3.95
2023-02-11T22:46:34.411Z,3.94
2023-02-11T22:49:25.114Z,3.91
2023-02-11T22:52:13.946Z,3.91
2023-02-11T22:55:03.013Z,3.89
2023-02-11T22:57:55.228Z,3.87
2023-02-11T23:00:45.078Z,3.84
2023-02-11T23:03:34.097Z,3.80
2023-02-11T23:06:23.066Z,3.79
2023-02-11T23:09:13.462Z,3.78
2023-02-11T23:12:02.352Z,3.76
2023-02-11T23:14:55.504Z,3.74
2023-02-11T23:17:49.074Z,3.71
2023-02-11T23:20:41.701Z,3.69
2023-02-11T23:23:30.664Z,3.68
2023-02-11T23:26:30.412Z,3.63
2023-02-11T23:29:19.236Z,3.59
2023-02-11T23:32:09.576Z,3.53
2023-02-11T23:34:59.300Z,3.51
2023-02-11T23:37:50.982Z,3.47
2023-02-11T23:40:41.170Z,3.45
2023-02-11T23:43:29.977Z,3.42
2023-02-11T23:46:22.024Z,3.38
2023-02-11T23:49:14.734Z,3.36
2023-02-11T23:52:03.619Z,3.34
2023-02-11T23:54:54.560Z,3.33
2023-02-11T23:57:45.407Z,3.30
